• Join FlightAware (Why Join?)
  • Login
  • US Flag 
09:39AM EST


 

Airport Tracker/Info


-or-


 

Live Flight TrackerFlight Track Log ✈ DAL1042 ✈ 25-Aug-2013 ✈ KSNA - KATL

Flight Track Log - Related Links

Times and Time Zones

All times are in EDT time to prevent confusion due to time zone crossing. See the DAL1042 flight status page for this flight to view local times or setup timezone preferences in your user account.

Time Position Orientation Groundspeed Altitude Reporting Facility
EDT Latitude Longitude Course Direction KTS MPH feet Rate Location/Type
11:04AM 33.6500 -117.8833 90° East 150 173 1,600  Level Southern California TRACON
11:05AM 33.6167 -117.9000 203° Southwest 160 184 3,400 1,260 Climbing Southern California TRACON
11:05AM 33.5875 -117.8961 174° South 159 183 3,700 1,080 Climbing Los Angeles Center
11:06AM 33.5486 -117.8294 125° Southeast 236 272 5,300 2,220 Climbing Los Angeles Center
11:07AM 33.5491 -117.5136 66° East  Level FlightAware Approximate
11:08AM 33.5833 -117.3749 90° East  Level FlightAware Approximate
11:08AM 33.5864 -117.7431 62° Northeast 276 318 8,400  Level Los Angeles Center
11:09AM 33.5834 -117.2279 90° East  Level FlightAware Approximate
11:09AM 33.5872 -117.6439 89° East 291 335 10,700  Level Los Angeles Center
11:10AM 33.5844 -117.5294 92° East 323 372 12,000 1,740 Climbing Los Angeles Center
11:11AM 33.5842 -117.4014 90° East 372 428 14,300 2,220 Climbing Los Angeles Center
11:12AM 33.5911 -117.2689 86° East 396 456 16,600 2,160 Climbing Los Angeles Center
11:13AM 33.5994 -117.1031 87° East 413 475 18,800 1,920 Climbing Los Angeles Center
11:14AM 33.6044 -116.9586 88° East 428 493 20,600 1,620 Climbing Los Angeles Center
11:15AM 33.6086 -116.8075 88° East 439 505 22,200 1,560 Climbing Los Angeles Center
11:16AM 33.6133 -116.6544 88° East 453 521 23,900 1,500 Climbing Los Angeles Center
11:17AM 33.6169 -116.5000 88° East 461 531 25,300 1,260 Climbing Los Angeles Center
11:18AM 33.6228 -116.3400 87° East 475 547 26,500 1,140 Climbing Los Angeles Center
11:19AM 33.6289 -116.1775 87° East 484 557 27,700 1,080 Climbing Los Angeles Center
11:20AM 33.6375 -116.0106 86° East 498 573 28,800 1,260 Climbing Los Angeles Center
11:21AM 33.6489 -115.8447 85° East 497 572 30,300 1,500 Climbing Los Angeles Center
11:22AM 33.6625 -115.6464 85° East 496 571 32,000 1,260 Climbing Los Angeles Center
11:23AM 33.6753 -115.4819 85° East 496 571 33,000 480 Climbing Los Angeles Center
11:24AM 33.7142 -115.3233 74° East 494 568 33,000  Level Los Angeles Center
11:25AM 33.7714 -115.1647 67° East 514 592 33,000  Level Los Angeles Center
11:26AM 33.8394 -114.9731 67° East 518 596 33,000 240 Level Los Angeles Center
11:27AM 33.8867 -114.8475 66° East 515 593 33,600 720 Climbing Los Angeles Center
11:28AM 33.9533 -114.6564 67° East 517 595 34,500 780 Climbing Los Angeles Center
11:29AM 34.0228 -114.4644 66° East 520 598 35,300 840 Climbing Los Angeles Center
11:30AM 34.0789 -114.3047 67° East 518 596 36,300 840 Climbing Los Angeles Center
11:31AM 34.1319 -114.1544 67° East 519 597 37,000 300 Climbing Albuquerque Center
11:32AM 34.1869 -113.9956 67° East 516 594 37,000  Level Albuquerque Center
11:33AM 34.2431 -113.8339 67° East 519 597 37,000  Level Albuquerque Center
11:34AM 34.2986 -113.6736 67° East 518 596 37,000  Level Albuquerque Center
11:35AM 34.3619 -113.4897 67° East 523 602 37,000  Level Albuquerque Center
11:36AM 34.4172 -113.3264 68° East 524 603 37,000  Level Albuquerque Center
11:37AM 34.4672 -113.1769 68° East 525 604 37,000  Level Albuquerque Center
11:38AM 34.5228 -113.0150 67° East 525 604 37,000  Level Albuquerque Center
11:39AM 34.5886 -112.8228 67° East 522 601 37,000  Level Albuquerque Center
11:40AM 34.6417 -112.6597 68° East 524 603 37,000  Level Albuquerque Center
11:42AM 34.6947 -112.4986 68° East 522 601 37,000  Level Albuquerque Center
11:43AM 34.7328 -112.3417 74° East 518 596 37,000  Level Albuquerque Center
11:44AM 34.7700 -112.1678 75° East 515 593 37,000  Level Albuquerque Center
11:45AM 34.8067 -111.9997 75° East 516 594 37,000  Level Albuquerque Center
11:46AM 34.8497 -111.7997 75° East 515 593 37,000  Level Albuquerque Center
11:47AM 34.8864 -111.6306 75° East 516 594 37,000  Level Albuquerque Center
11:48AM 34.9225 -111.4600 75° East 518 596 37,000  Level Albuquerque Center
11:49AM 34.9586 -111.2889 76° East 521 600 37,000  Level Albuquerque Center
11:50AM 34.9936 -111.1172 76° East 521 600 37,000  Level Albuquerque Center
11:51AM 35.0294 -110.9478 75° East 518 596 37,000  Level Albuquerque Center
11:52AM 35.0717 -110.7517 75° East 518 596 37,000  Level Albuquerque Center
11:53AM 35.1067 -110.5875 75° East 521 600 37,000  Level Albuquerque Center
11:54AM 35.1494 -110.3972 75° East 521 600 37,000 60 Level Albuquerque Center
11:55AM 35.1856 -110.2344 75° East 520 598 37,200 840 Climbing Albuquerque Center
11:56AM 35.2244 -110.0506 75° East 508 585 38,800 840 Climbing Albuquerque Center
11:57AM 35.2569 -109.9003 75° East 488 562 39,000 60 Climbing Albuquerque Center
11:58AM 35.2908 -109.7494 75° East 483 556 39,000  Level Albuquerque Center
11:59AM 35.3300 -109.5686 75° East 489 563 39,000  Level Albuquerque Center
12:00PM 35.3631 -109.4125 75° East 494 568 39,000  Level Albuquerque Center
12:01PM 35.4022 -109.2267 75° East 502 578 39,000  Level Albuquerque Center
12:02PM 35.4353 -109.0683 76° East 502 578 39,000  Level Albuquerque Center
12:03PM 35.4722 -108.8842 76° East 501 577 39,000  Level Albuquerque Center
12:04PM 35.4867 -108.7222 84° East 501 577 39,000  Level Albuquerque Center
12:05PM 35.4978 -108.5342 86° East 499 574 39,000  Level Albuquerque Center
12:06PM 35.5072 -108.3728 86° East 498 573 39,000  Level Albuquerque Center
12:07PM 35.5178 -108.2119 85° East 497 572 39,000  Level Albuquerque Center
12:08PM 35.5289 -108.0233 86° East 498 573 39,000  Level Albuquerque Center
12:09PM 35.5386 -107.8617 86° East 497 572 39,000  Level Albuquerque Center
12:10PM 35.5481 -107.6731 86° East 497 572 39,000  Level Albuquerque Center
12:11PM 35.5567 -107.5119 86° East 496 571 39,000  Level Albuquerque Center
12:12PM 35.5667 -107.3228 86° East 497 572 39,000  Level Albuquerque Center
12:13PM 35.5733 -107.1522 87° East 498 573 39,000  Level Albuquerque Center
12:14PM 35.5833 -106.9686 86° East 501 577 39,000  Level Albuquerque Center
12:15PM 35.5911 -106.7994 87° East 497 572 39,000  Level Albuquerque Center
12:16PM 35.5983 -106.6308 87° East 494 568 39,000  Level Albuquerque Center
12:17PM 35.6075 -106.4494 86° East 495 570 39,000  Level Albuquerque Center
12:19PM 35.6142 -106.2800 87° East 495 570 39,000  Level Albuquerque Center
12:20PM 35.6231 -106.1319 86° East 500 575 39,000  Level Albuquerque Center
12:21PM 35.6322 -105.9308 87° East 493 567 39,000  Level Albuquerque Center
12:22PM 35.6367 -105.7633 88° East 490 564 39,000  Level Albuquerque Center
12:23PM 35.6439 -105.5972 87° East 488 562 39,000  Level Albuquerque Center
12:24PM 35.6475 -105.4353 88° East 485 558 39,000  Level Albuquerque Center
12:25PM 35.6539 -105.2689 87° East 482 555 39,000  Level Albuquerque Center
12:26PM 35.6603 -105.1033 87° East 480 552 39,000  Level Albuquerque Center
12:27PM 35.6692 -104.9108 87° East 478 550 39,000  Level Albuquerque Center
12:28PM 35.6764 -104.7492 87° East 471 542 39,000  Level Albuquerque Center
12:29PM 35.6839 -104.5858 87° East 471 542 39,000  Level Albuquerque Center
12:30PM 35.6922 -104.4236 86° East 470 541 39,000  Level Albuquerque Center
12:31PM 35.6992 -104.2631 87° East 465 535 39,000  Level Albuquerque Center
12:32PM 35.7069 -104.1022 87° East 464 534 39,000  Level Albuquerque Center
12:33PM 35.7122 -103.9433 88° East 460 529 39,000  Level Albuquerque Center
12:34PM 35.7194 -103.7856 87° East 457 526 39,000  Level Albuquerque Center
12:35PM 35.7250 -103.6283 87° East 455 524 39,000  Level Albuquerque Center
12:36PM 35.7300 -103.4742 88° East 449 517 39,000  Level Albuquerque Center
12:37PM 35.7358 -103.3197 87° East 447 514 39,000  Level Albuquerque Center
12:38PM 35.7428 -103.1428 87° East 442 509 39,000  Level Albuquerque Center
12:39PM 35.7478 -102.9908 88° East 441 507 39,000  Level Albuquerque Center
12:40PM 35.7514 -102.8592 88° East 441 507 39,000  Level Albuquerque Center
12:41PM 35.7572 -102.6789 88° East 440 506 39,000  Level Albuquerque Center
12:42PM 35.7619 -102.5289 88° East 439 505 39,000  Level Albuquerque Center
12:43PM 35.7650 -102.3792 89° East 438 504 39,000  Level Albuquerque Center
12:44PM 35.7700 -102.2289 88° East 438 504 39,000  Level Albuquerque Center
12:45PM 35.7739 -102.0786 88° East 439 505 39,000  Level Albuquerque Center
12:46PM 35.7769 -101.9286 89° East 438 504 39,000  Level Albuquerque Center
12:47PM 35.7817 -101.7783 88° East 438 504 39,000  Level Albuquerque Center
12:48PM 35.7844 -101.5975 89° East 438 504 39,000  Level Albuquerque Center
12:49PM 35.7881 -101.4464 88° East 439 505 39,000  Level Albuquerque Center
12:50PM 35.7914 -101.2944 88° East 440 506 39,000  Level Albuquerque Center
12:52PM 35.7931 -101.1431 89° East 441 507 39,000  Level Albuquerque Center
12:53PM 35.7950 -100.9911 89° East 442 509 39,000  Level Albuquerque Center
12:54PM 35.7956 -100.8417 90° East 441 507 39,000  Level Albuquerque Center
12:55PM 35.7983 -100.6903 89° East 442 509 39,000  Level Albuquerque Center
12:56PM 35.8006 -100.5078 89° East 443 510 39,000  Level Albuquerque Center
12:57PM 35.7997 -100.3542 90° East 446 513 39,000  Level Albuquerque Center
12:58PM 35.8019 -100.2011 89° East 446 513 39,000  Level Albuquerque Center
12:59PM 35.8044 -100.0481 89° East 447 514 39,000  Level Albuquerque Center
01:00PM 35.8058 -99.8961 89° East 446 513 39,000  Level Albuquerque Center
01:01PM 35.8072 -99.7731 89° East 448 516 39,000  Level Kansas City Center
01:02PM 35.8075 -99.5906 90° East 447 514 39,000  Level Kansas City Center
01:03PM 35.8075 -99.4364 90° East 451 519 39,000  Level Kansas City Center
01:04PM 35.8075 -99.2700 90° East 454 522 39,000  Level Kansas City Center
01:05PM 35.8081 -99.1142 90° East 456 525 39,000  Level Kansas City Center
01:06PM 35.8100 -98.9583 89° East 456 525 39,000  Level Kansas City Center
01:07PM 35.8097 -98.8036 90° East 451 519 39,000  Level Kansas City Center
01:08PM 35.8092 -98.6350 90° East 452 520 39,000  Level Kansas City Center
01:09PM 35.8089 -98.4806 90° East 452 520 39,000  Level Kansas City Center
01:10PM 35.8092 -98.3256 90° East 453 521 39,000  Level Kansas City Center
01:11PM 35.8078 -98.1708 91° East 452 520 39,000  Level Kansas City Center
01:12PM 35.8086 -97.9989 90° East 451 519 39,000  Level Kansas City Center
01:13PM 35.8356 -97.8489 77° East 448 516 39,000 240 Level Kansas City Center
01:14PM 35.8650 -97.6997 76° East 447 514 39,600 480 Climbing Kansas City Center
01:15PM 35.8917 -97.5506 78° East 445 512 40,000 180 Climbing Kansas City Center
01:16PM 35.9178 -97.4014 78° East 443 510 40,000  Level Kansas City Center
01:17PM 35.9503 -97.2264 77° East 437 503 40,000  Level Kansas City Center
01:18PM 35.9758 -97.0786 78° East 439 505 40,000  Level Kansas City Center
01:19PM 36.0031 -96.9303 77° East 441 507 40,000  Level Kansas City Center
01:20PM 36.0289 -96.7828 78° East 440 506 40,000  Level Kansas City Center
01:21PM 36.0542 -96.6367 78° East 438 504 40,000  Level Kansas City Center
01:22PM 36.0806 -96.4817 78° East 438 504 40,000  Level Kansas City Center
01:23PM 36.1039 -96.3347 79° East 437 503 40,000  Level Kansas City Center
01:24PM 36.1300 -96.1856 78° East 441 507 40,000  Level Kansas City Center
01:25PM 36.1542 -96.0378 79° East 439 505 40,000  Level Kansas City Center
01:27PM 36.1825 -95.8614 79° East 437 503 40,000  Level Kansas City Center
01:28PM 36.2000 -95.7189 81° East 438 504 40,000  Level Kansas City Center
01:29PM 36.2028 -95.5667 89° East 443 510 40,000  Level Kansas City Center
01:30PM 36.2069 -95.4139 88° East 448 516 40,000  Level Kansas City Center
01:31PM 36.2114 -95.2294 88° East 449 517 40,000  Level Kansas City Center
01:32PM 36.2186 -95.0769 87° East 445 512 40,000  Level Kansas City Center
01:33PM 36.2233 -94.9253 88° East 443 510 40,000  Level Kansas City Center
01:34PM 36.2281 -94.7736 88° East 442 509 40,000  Level Kansas City Center
01:35PM 36.2325 -94.6217 88° East 443 510 40,000 -300 Level Kansas City Center
01:36PM 36.2367 -94.4697 88° East 442 509 39,500 -540 Descending Kansas City Center
01:37PM 36.2406 -94.2889 88° East 439 505 39,000 -300 Descending Kansas City Center
01:38PM 36.2439 -94.1378 88° East 439 505 39,000  Level Kansas City Center
01:39PM 36.2150 -94.0075 105° East 440 506 39,000  Level Kansas City Center
01:40PM 36.1733 -93.8611 109° East 448 516 39,000  Level Kansas City Center
01:41PM 36.1242 -93.6881 109° East 446 513 39,000  Level Kansas City Center
01:42PM 36.0731 -93.5078 109° East 443 510 39,000  Level Memphis Center
01:43PM 36.0328 -93.3625 109° East 443 510 39,000  Level Memphis Center
01:44PM 35.9944 -93.2228 109° East 443 510 39,000  Level Memphis Center
01:45PM 35.9539 -93.0778 109° East 438 504 39,000  Level Memphis Center
01:46PM 35.9111 -92.9328 110° East 438 504 39,000  Level Memphis Center
01:47PM 35.8703 -92.7881 109° East 443 510 39,000  Level Memphis Center
01:48PM 35.8292 -92.6433 109° East 443 510 39,000  Level Memphis Center
01:49PM 35.7858 -92.5014 111° Southeast 448 516 39,000  Level Memphis Center
01:50PM 35.7444 -92.3572 109° East 448 516 39,000  Level Memphis Center
01:51PM 35.7006 -92.2181 111° Southeast 448 516 39,000  Level Memphis Center
01:52PM 35.6608 -92.0767 109° East 442 509 39,000  Level Memphis Center
01:53PM 35.6192 -91.9353 110° East 442 509 39,000  Level Memphis Center
01:54PM 35.5789 -91.7967 110° East 437 503 39,000  Level Memphis Center
01:55PM 35.5367 -91.6556 110° East 432 497 39,000  Level Memphis Center
01:56PM 35.4942 -91.5172 111° Southeast 432 497 39,000  Level Memphis Center
01:57PM 35.4600 -91.3944 109° East 432 497 39,000  Level Memphis Center
01:58PM 35.4089 -91.2386 112° Southeast 432 497 39,000  Level Memphis Center
01:59PM 35.3661 -91.1031 111° Southeast 432 497 39,000  Level Memphis Center
02:00PM 35.3250 -90.9703 111° Southeast 426 490 39,000  Level Memphis Center
02:01PM 35.2861 -90.8328 109° East 426 490 39,000  Level Memphis Center
02:02PM 35.2428 -90.6953 111° Southeast 432 497 39,000  Level Memphis Center
02:03PM 35.1969 -90.5553 112° Southeast 432 497 39,000  Level Memphis Center
02:04PM 35.1556 -90.4206 111° Southeast 432 497 39,000  Level Memphis Center
02:05PM 35.1094 -90.2783 112° Southeast 432 497 39,000  Level Memphis Center
02:06PM 35.0678 -90.1414 110° East 432 497 39,000  Level Memphis Center
02:07PM 35.0297 -90.0172 110° East 432 497 39,000  Level Memphis Center
02:08PM 35.0064 -89.8703 101° East 432 497 39,000  Level Memphis Center
02:09PM 34.9828 -89.7158 101° East 454 522 39,000  Level Memphis Center
02:10PM 34.9567 -89.5514 101° East 466 536 39,000  Level Memphis Center
02:11PM 34.9328 -89.4072 101° East 442 509 39,000  Level Memphis Center
02:12PM 34.9106 -89.2631 101° East 426 490 39,000  Level Memphis Center
02:13PM 34.8886 -89.1242 101° East 426 490 39,000  Level Memphis Center
02:14PM 34.8661 -88.9778 101° East 431 496 39,000 -240 Level Memphis Center
02:15PM 34.8436 -88.8389 101° East 425 489 38,600 -600 Descending Memphis Center
02:16PM 34.8233 -88.7128 101° East 425 489 37,800 -720 Descending Memphis Center
02:17PM 34.8003 -88.5664 101° East 430 495 37,200 -600 Descending Memphis Center
02:18PM 34.7817 -88.4406 100° East 404 465 36,600 -780 Descending Memphis Center
02:19PM 34.7608 -88.3019 100° East 404 465 35,700 -840 Descending Memphis Center
02:20PM 34.7375 -88.1583 101° East 417 480 35,000 -360 Descending Memphis Center
02:21PM 34.7139 -88.0125 101° East 430 495 35,000  Level Memphis Center
02:22PM 34.6900 -87.8592 101° East 430 495 35,000 -420 Level Memphis Center
02:23PM 34.6683 -87.7133 100° East 430 495 34,200 -900 Descending Memphis Center
02:24PM 34.6400 -87.5703 103° East 430 495 33,200 -600 Descending Memphis Center
02:25PM 34.6139 -87.4350 103° East 416 479 33,000 -120 Descending Memphis Center
02:26PM 34.5928 -87.2786 99° East 447 514 33,000  Level Atlanta Center
02:27PM 34.5650 -87.1389 104° East 441 507 33,000  Level Atlanta Center
02:28PM 34.5372 -86.9992 104° East 429 494 33,000  Level Atlanta Center
02:29PM 34.5092 -86.8569 103° East 429 494 33,000 -420 Level Atlanta Center
02:30PM 34.4811 -86.7175 104° East 429 494 32,200 -1,080 Descending Atlanta Center
02:31PM 34.4550 -86.5706 102° East 429 494 30,900 -1,200 Descending Atlanta Center
02:32PM 34.4264 -86.4261 103° East 435 501 29,800 -960 Descending Atlanta Center
02:33PM 34.3978 -86.2844 104° East 435 501 29,000 -780 Descending Atlanta Center
02:34PM 34.3711 -86.1428 103° East 435 501 28,300 -900 Descending Atlanta Center
02:35PM 34.3442 -86.0061 103° East 430 495 27,300 -1,620 Descending Atlanta Center
02:36PM 34.3150 -85.8697 104° East 425 489 25,100 -2,160 Descending Atlanta Center
02:37PM 34.2939 -85.7436 101° East 391 450 23,000 -2,100 Descending Atlanta Center
02:38PM 34.2642 -85.6097 105° East 393 452 20,900 -1,980 Descending Atlanta Center
02:39PM 34.2389 -85.4786 103° East 401 461 19,100 -1,380 Descending Atlanta Center
02:40PM 34.2111 -85.3500 105° East 401 461 18,200 -1,620 Descending Atlanta Center
02:41PM 34.1892 -85.2342 103° East 395 455 15,900 -2,520 Descending Atlanta Center
02:42PM 34.1528 -85.1081 109° East 401 461 13,200 -1,500 Descending Atlanta Center
02:43PM 34.0889 -85.0219 132° Southeast 361 415 13,000 -420 Descending Atlanta Center
02:44PM 34.0308 -84.9486 134° Southeast 319 367 12,400 -1,020 Descending Atlanta Center
02:45PM 33.9731 -84.8756 134° Southeast 299 344 11,000 -1,380 Descending Atlanta Center
02:46PM 33.9172 -84.8047 134° Southeast 299 344 9,700 -1,560 Descending Atlanta Center
02:47PM 33.8611 -84.7367 135° Southeast 294 338 7,900 -1,740 Descending Atlanta Center
02:48PM 33.7667 -84.7500 187° South 293 337 6,000 -1,260 Descending Atlanta TRACON
02:49PM 33.6833 -84.7667 189° South 239 275 5,200 -540 Descending Atlanta TRACON
02:50PM 33.6500 -84.7167 129° Southeast 195 224 4,900 -420 Descending Atlanta TRACON
02:51PM 33.6500 -84.6667 90° East 184 212 4,400 -660 Descending Atlanta TRACON
02:52PM 33.6500 -84.6000 90° East 195 224 3,600 -960 Descending Atlanta TRACON
02:53PM 33.6500 -84.5333 90° East 192 221 2,600 -1,020 Descending Atlanta TRACON
02:54PM 33.6500 -84.4833 90° East 154 177 1,700 -900 Descending Atlanta TRACON